sensor_id;sensor_type;location;lat;lon;timestamp;temperature;humidity
22522;DHT22;11427;51.062;17.044;2023-03-01T00:09:44;-0.40;99.90
22522;DHT22;11427;51.062;17.044;2023-03-01T00:24:47;-0.50;99.90
22522;DHT22;11427;51.062;17.044;2023-03-01T00:39:49;-0.40;99.90
22522;DHT22;11427;51.062;17.044;2023-03-01T00:54:52;-0.50;99.90
22522;DHT22;11427;51.062;17.044;2023-03-01T01:09:54;-0.70;99.90
22522;DHT22;11427;51.062;17.044;2023-03-01T01:24:56;-0.90;99.90
22522;DHT22;11427;51.062;17.044;2023-03-01T01:40:00;-1.00;99.90
22522;DHT22;11427;51.062;17.044;2023-03-01T01:55:17;-1.30;99.90
22522;DHT22;11427;51.062;17.044;2023-03-01T02:10:23;-1.10;99.90
22522;DHT22;11427;51.062;17.044;2023-03-01T02:25:33;-1.40;99.90
22522;DHT22;11427;51.062;17.044;2023-03-01T02:40:38;-1.30;99.90
22522;DHT22;11427;51.062;17.044;2023-03-01T02:55:40;-1.60;99.90
22522;DHT22;11427;51.062;17.044;2023-03-01T03:10:42;-1.80;99.90
22522;DHT22;11427;51.062;17.044;2023-03-01T03:25:47;-1.40;99.90
22522;DHT22;11427;51.062;17.044;2023-03-01T03:40:51;-1.30;99.90
22522;DHT22;11427;51.062;17.044;2023-03-01T03:55:54;-1.50;99.90
22522;DHT22;11427;51.062;17.044;2023-03-01T04:11:05;-1.60;99.90
22522;DHT22;11427;51.062;17.044;2023-03-01T04:26:26;-1.70;99.90
22522;DHT22;11427;51.062;17.044;2023-03-01T04:41:29;-2.10;99.90
22522;DHT22;11427;51.062;17.044;2023-03-01T04:56:30;-2.00;99.90
22522;DHT22;11427;51.062;17.044;2023-03-01T05:11:33;-1.80;99.90
22522;DHT22;11427;51.062;17.044;2023-03-01T05:26:37;-1.90;99.90
22522;DHT22;11427;51.062;17.044;2023-03-01T05:41:42;-1.90;99.90
22522;DHT22;11427;51.062;17.044;2023-03-01T05:56:44;-1.80;99.90
22522;DHT22;11427;51.062;17.044;2023-03-01T06:11:46;-2.00;99.90
22522;DHT22;11427;51.062;17.044;2023-03-01T06:26:48;-1.90;99.90
22522;DHT22;11427;51.062;17.044;2023-03-01T06:41:50;-2.10;99.90
22522;DHT22;11427;51.062;17.044;2023-03-01T06:56:54;-1.20;99.90
22522;DHT22;11427;51.062;17.044;2023-03-01T07:11:57;-1.10;99.90
22522;DHT22;11427;51.062;17.044;2023-03-01T07:26:59;-0.50;99.90
22522;DHT22;11427;51.062;17.044;2023-03-01T07:42:01;-0.70;99.90
22522;DHT22;11427;51.062;17.044;2023-03-01T07:57:03;0.60;99.90
22522;DHT22;11427;51.062;17.044;2023-03-01T08:12:05;3.30;99.90
22522;DHT22;11427;51.062;17.044;2023-03-01T08:27:08;4.90;99.90
22522;DHT22;11427;51.062;17.044;2023-03-01T08:42:10;6.30;97.50
22522;DHT22;11427;51.062;17.044;2023-03-01T08:57:12;7.00;91.80
22522;DHT22;11427;51.062;17.044;2023-03-01T09:12:14;3.80;96.40
22522;DHT22;11427;51.062;17.044;2023-03-01T09:27:16;5.10;93.70
22522;DHT22;11427;51.062;17.044;2023-03-01T09:42:20;6.90;88.10
22522;DHT22;11427;51.062;17.044;2023-03-01T09:57:49;6.00;89.20
22522;DHT22;11427;51.062;17.044;2023-03-01T10:12:53;6.10;88.90
22522;DHT22;11427;51.062;17.044;2023-03-01T10:28:02;5.90;88.20
22522;DHT22;11427;51.062;17.044;2023-03-01T10:43:05;6.00;85.90
22522;DHT22;11427;51.062;17.044;2023-03-01T11:13:19;7.20;84.70
22522;DHT22;11427;51.062;17.044;2023-03-01T11:28:22;7.00;82.10
22522;DHT22;11427;51.062;17.044;2023-03-01T11:59:03;6.30;85.30
22522;DHT22;11427;51.062;17.044;2023-03-01T13:00:59;6.50;80.50
22522;DHT22;11427;51.062;17.044;2023-03-01T13:46:33;6.00;68.20
22522;DHT22;11427;51.062;17.044;2023-03-01T14:01:36;6.00;71.70
22522;DHT22;11427;51.062;17.044;2023-03-01T14:16:43;6.10;70.50
22522;DHT22;11427;51.062;17.044;2023-03-01T14:31:47;6.10;69.10
22522;DHT22;11427;51.062;17.044;2023-03-01T14:46:55;6.30;69.30
22522;DHT22;11427;51.062;17.044;2023-03-01T15:01:58;6.10;68.70
22522;DHT22;11427;51.062;17.044;2023-03-01T15:17:00;6.10;72.70
22522;DHT22;11427;51.062;17.044;2023-03-01T15:32:05;6.20;72.20
22522;DHT22;11427;51.062;17.044;2023-03-01T15:47:27;6.20;69.80
22522;DHT22;11427;51.062;17.044;2023-03-01T16:02:30;6.10;73.20
22522;DHT22;11427;51.062;17.044;2023-03-01T16:17:32;6.00;74.90
22522;DHT22;11427;51.062;17.044;2023-03-01T16:32:38;5.70;75.90
22522;DHT22;11427;51.062;17.044;2023-03-01T16:47:41;5.40;78.20
22522;DHT22;11427;51.062;17.044;2023-03-01T17:02:43;5.20;77.80
22522;DHT22;11427;51.062;17.044;2023-03-01T17:17:46;5.10;80.40
22522;DHT22;11427;51.062;17.044;2023-03-01T17:32:52;4.70;81.40
22522;DHT22;11427;51.062;17.044;2023-03-01T17:47:56;4.70;82.80
22522;DHT22;11427;51.062;17.044;2023-03-01T18:02:58;4.50;84.30
22522;DHT22;11427;51.062;17.044;2023-03-01T18:18:00;4.30;86.30
22522;DHT22;11427;51.062;17.044;2023-03-01T18:33:02;4.00;89.70
22522;DHT22;11427;51.062;17.044;2023-03-01T18:48:05;3.60;91.10
22522;DHT22;11427;51.062;17.044;2023-03-01T19:03:07;3.30;92.10
22522;DHT22;11427;51.062;17.044;2023-03-01T19:18:09;2.90;95.30
22522;DHT22;11427;51.062;17.044;2023-03-01T19:33:17;2.70;95.80
22522;DHT22;11427;51.062;17.044;2023-03-01T20:04:28;2.30;98.30
22522;DHT22;11427;51.062;17.044;2023-03-01T20:19:35;2.00;99.90
22522;DHT22;11427;51.062;17.044;2023-03-01T20:34:39;1.90;99.90
22522;DHT22;11427;51.062;17.044;2023-03-01T20:49:50;1.70;99.90
22522;DHT22;11427;51.062;17.044;2023-03-01T21:04:52;1.70;99.90
22522;DHT22;11427;51.062;17.044;2023-03-01T21:19:55;1.80;99.90
22522;DHT22;11427;51.062;17.044;2023-03-01T21:34:59;1.10;99.90
22522;DHT22;11427;51.062;17.044;2023-03-01T21:50:01;1.10;99.90
22522;DHT22;11427;51.062;17.044;2023-03-01T22:05:03;0.90;99.90
22522;DHT22;11427;51.062;17.044;2023-03-01T22:20:06;0.60;99.90
22522;DHT22;11427;51.062;17.044;2023-03-01T22:35:08;0.10;99.90
22522;DHT22;11427;51.062;17.044;2023-03-01T22:50:12;0.70;99.90
22522;DHT22;11427;51.062;17.044;2023-03-01T23:05:15;0.80;99.90
22522;DHT22;11427;51.062;17.044;2023-03-01T23:20:17;0.60;99.90
22522;DHT22;11427;51.062;17.044;2023-03-01T23:35:19;0.50;99.90
22522;DHT22;11427;51.062;17.044;2023-03-01T23:50:21;0.40;99.90
